sensor_id;sensor_type;location;lat;lon;timestamp;P1;P2;P0
68841;PMS5003;55849;48.482;2.332;2024-01-30T00:02:14;30.75;27.75;18.75
68841;PMS5003;55849;48.482;2.332;2024-01-30T00:05:16;40.50;34.25;22.00
68841;PMS5003;55849;48.482;2.332;2024-01-30T00:08:17;33.75;27.75;19.00
68841;PMS5003;55849;48.482;2.332;2024-01-30T00:11:20;39.50;30.00;20.00
68841;PMS5003;55849;48.482;2.332;2024-01-30T00:14:22;40.00;32.00;21.25
68841;PMS5003;55849;48.482;2.332;2024-01-30T00:17:24;36.25;28.50;20.50
68841;PMS5003;55849;48.482;2.332;2024-01-30T00:20:26;16.50;16.50;12.50
68841;PMS5003;55849;48.482;2.332;2024-01-30T00:23:27;39.50;29.50;18.75
68841;PMS5003;55849;48.482;2.332;2024-01-30T00:26:30;31.25;27.25;19.00
68841;PMS5003;55849;48.482;2.332;2024-01-30T00:29:32;33.25;33.25;21.75
68841;PMS5003;55849;48.482;2.332;2024-01-30T00:32:33;31.25;25.00;18.00
68841;PMS5003;55849;48.482;2.332;2024-01-30T00:35:35;36.25;30.00;18.25
68841;PMS5003;55849;48.482;2.332;2024-01-30T00:38:37;37.00;31.50;22.50
68841;PMS5003;55849;48.482;2.332;2024-01-30T00:41:40;19.75;17.25;13.00
68841;PMS5003;55849;48.482;2.332;2024-01-30T00:44:41;23.50;18.75;13.00
68841;PMS5003;55849;48.482;2.332;2024-01-30T00:47:43;25.75;17.00;12.75
68841;PMS5003;55849;48.482;2.332;2024-01-30T00:50:44;24.75;18.00;13.00
68841;PMS5003;55849;48.482;2.332;2024-01-30T00:53:46;24.75;20.00;15.50
68841;PMS5003;55849;48.482;2.332;2024-01-30T00:56:49;27.25;21.00;15.00
68841;PMS5003;55849;48.482;2.332;2024-01-30T00:59:51;24.50;21.75;14.50
68841;PMS5003;55849;48.482;2.332;2024-01-30T01:02:53;29.25;24.00;18.00
68841;PMS5003;55849;48.482;2.332;2024-01-30T01:05:54;27.50;21.50;13.00
68841;PMS5003;55849;48.482;2.332;2024-01-30T01:08:56;24.75;15.00;8.00
68841;PMS5003;55849;48.482;2.332;2024-01-30T01:11:59;16.25;13.00;12.00
68841;PMS5003;55849;48.482;2.332;2024-01-30T01:15:00;19.00;13.00;10.00
68841;PMS5003;55849;48.482;2.332;2024-01-30T01:18:02;25.75;18.00;12.00
68841;PMS5003;55849;48.482;2.332;2024-01-30T01:21:04;18.00;11.00;6.50
68841;PMS5003;55849;48.482;2.332;2024-01-30T01:24:06;23.50;16.00;12.25
68841;PMS5003;55849;48.482;2.332;2024-01-30T01:27:09;18.25;16.00;13.00
68841;PMS5003;55849;48.482;2.332;2024-01-30T01:30:11;18.00;16.00;12.00
68841;PMS5003;55849;48.482;2.332;2024-01-30T01:33:18;18.00;13.00;7.00
68841;PMS5003;55849;48.482;2.332;2024-01-30T01:36:20;16.00;10.00;6.25
68841;PMS5003;55849;48.482;2.332;2024-01-30T01:39:22;9.75;9.25;7.00
68841;PMS5003;55849;48.482;2.332;2024-01-30T01:42:25;7.00;7.00;3.50
68841;PMS5003;55849;48.482;2.332;2024-01-30T01:45:27;14.75;10.00;4.50
68841;PMS5003;55849;48.482;2.332;2024-01-30T01:48:28;13.25;11.25;6.75
68841;PMS5003;55849;48.482;2.332;2024-01-30T01:51:30;14.75;12.75;7.00
68841;PMS5003;55849;48.482;2.332;2024-01-30T01:54:34;14.50;9.00;7.00
68841;PMS5003;55849;48.482;2.332;2024-01-30T01:57:37;9.75;9.75;6.50
68841;PMS5003;55849;48.482;2.332;2024-01-30T02:00:39;11.00;9.00;5.50
68841;PMS5003;55849;48.482;2.332;2024-01-30T02:03:41;8.50;7.00;6.00
68841;PMS5003;55849;48.482;2.332;2024-01-30T02:06:43;15.00;12.75;9.00
68841;PMS5003;55849;48.482;2.332;2024-01-30T02:09:45;11.50;9.75;7.00
68841;PMS5003;55849;48.482;2.332;2024-01-30T02:12:48;9.75;9.75;7.00
68841;PMS5003;55849;48.482;2.332;2024-01-30T02:15:50;12.75;11.00;7.00
68841;PMS5003;55849;48.482;2.332;2024-01-30T02:18:52;11.50;8.25;6.50
68841;PMS5003;55849;48.482;2.332;2024-01-30T02:21:55;18.00;13.00;9.00
68841;PMS5003;55849;48.482;2.332;2024-01-30T02:24:57;12.25;11.00;7.00
68841;PMS5003;55849;48.482;2.332;2024-01-30T02:27:58;11.50;11.50;7.00
68841;PMS5003;55849;48.482;2.332;2024-01-30T02:31:00;8.00;7.00;4.00
68841;PMS5003;55849;48.482;2.332;2024-01-30T02:34:01;11.50;9.50;6.50
68841;PMS5003;55849;48.482;2.332;2024-01-30T02:37:04;6.75;6.75;4.00
68841;PMS5003;55849;48.482;2.332;2024-01-30T02:40:06;6.00;5.50;3.75
68841;PMS5003;55849;48.482;2.332;2024-01-30T02:43:08;5.75;5.75;4.50
68841;PMS5003;55849;48.482;2.332;2024-01-30T02:46:10;6.50;6.00;3.25
68841;PMS5003;55849;48.482;2.332;2024-01-30T02:49:11;3.25;3.25;3.00
68841;PMS5003;55849;48.482;2.332;2024-01-30T02:52:15;3.50;3.50;3.00
68841;PMS5003;55849;48.482;2.332;2024-01-30T02:55:17;7.00;7.00;6.00
68841;PMS5003;55849;48.482;2.332;2024-01-30T02:58:19;6.75;5.50;3.00
68841;PMS5003;55849;48.482;2.332;2024-01-30T03:01:20;12.00;6.00;3.00
68841;PMS5003;55849;48.482;2.332;2024-01-30T03:04:22;6.50;6.50;4.00
68841;PMS5003;55849;48.482;2.332;2024-01-30T03:07:25;5.75;5.50;3.75
68841;PMS5003;55849;48.482;2.332;2024-01-30T03:10:26;5.00;4.50;3.50
68841;PMS5003;55849;48.482;2.332;2024-01-30T03:13:28;6.50;6.50;4.00
68841;PMS5003;55849;48.482;2.332;2024-01-30T03:16:29;6.75;4.50;3.00
68841;PMS5003;55849;48.482;2.332;2024-01-30T03:19:31;3.00;3.00;3.00
68841;PMS5003;55849;48.482;2.332;2024-01-30T03:22:34;6.75;5.50;3.00
68841;PMS5003;55849;48.482;2.332;2024-01-30T03:25:35;8.00;6.00;4.00
68841;PMS5003;55849;48.482;2.332;2024-01-30T03:28:37;6.00;5.50;4.00
68841;PMS5003;55849;48.482;2.332;2024-01-30T03:31:39;3.75;3.75;1.00
68841;PMS5003;55849;48.482;2.332;2024-01-30T03:34:40;8.00;4.50;2.50
68841;PMS5003;55849;48.482;2.332;2024-01-30T03:37:43;8.00;4.00;3.00
68841;PMS5003;55849;48.482;2.332;2024-01-30T03:40:45;8.00;6.00;4.50
68841;PMS5003;55849;48.482;2.332;2024-01-30T03:43:47;5.00;5.00;3.00
68841;PMS5003;55849;48.482;2.332;2024-01-30T03:46:48;7.00;4.00;3.00
68841;PMS5003;55849;48.482;2.332;2024-01-30T03:49:50;7.25;6.00;2.50
68841;PMS5003;55849;48.482;2.332;2024-01-30T03:52:53;5.00;4.00;3.25
68841;PMS5003;55849;48.482;2.332;2024-01-30T03:55:55;6.00;3.00;2.00
68841;PMS5003;55849;48.482;2.332;2024-01-30T03:58:56;3.00;1.00;0.00
68841;PMS5003;55849;48.482;2.332;2024-01-30T04:01:59;3.75;3.75;2.50
68841;PMS5003;55849;48.482;2.332;2024-01-30T04:05:01;9.25;3.00;1.00
68841;PMS5003;55849;48.482;2.332;2024-01-30T04:08:04;11.00;7.00;3.75
68841;PMS5003;55849;48.482;2.332;2024-01-30T04:11:06;5.50;4.00;3.00
68841;PMS5003;55849;48.482;2.332;2024-01-30T04:14:08;10.50;5.50;3.25
68841;PMS5003;55849;48.482;2.332;2024-01-30T04:17:09;3.00;3.00;3.00
68841;PMS5003;55849;48.482;2.332;2024-01-30T04:20:13;4.50;4.50;3.00
68841;PMS5003;55849;48.482;2.332;2024-01-30T04:23:16;6.00;4.00;3.75
68841;PMS5003;55849;48.482;2.332;2024-01-30T04:26:18;4.00;4.00;3.00
68841;PMS5003;55849;48.482;2.332;2024-01-30T04:29:19;3.50;3.50;3.25
68841;PMS5003;55849;48.482;2.332;2024-01-30T04:32:22;5.00;5.00;2.00
68841;PMS5003;55849;48.482;2.332;2024-01-30T04:35:24;0.50;0.50;0.00
68841;PMS5003;55849;48.482;2.332;2024-01-30T04:38:27;2.00;2.00;1.00
68841;PMS5003;55849;48.482;2.332;2024-01-30T04:41:28;6.50;3.75;3.00
68841;PMS5003;55849;48.482;2.332;2024-01-30T04:44:31;5.00;5.00;3.00
68841;PMS5003;55849;48.482;2.332;2024-01-30T04:47:33;3.75;3.75;3.00
68841;PMS5003;55849;48.482;2.332;2024-01-30T04:50:34;7.50;7.50;4.00
68841;PMS5003;55849;48.482;2.332;2024-01-30T04:53:37;8.50;8.50;5.50
68841;PMS5003;55849;48.482;2.332;2024-01-30T04:56:40;6.75;3.25;2.00
68841;PMS5003;55849;48.482;2.332;2024-01-30T04:59:41;6.00;6.00;4.00
68841;PMS5003;55849;48.482;2.332;2024-01-30T05:02:43;5.00;5.00;3.00
68841;PMS5003;55849;48.482;2.332;2024-01-30T05:05:44;6.00;4.00;3.75
68841;PMS5003;55849;48.482;2.332;2024-01-30T05:08:47;6.00;4.00;3.00
68841;PMS5003;55849;48.482;2.332;2024-01-30T05:11:49;6.25;4.00;3.75
68841;PMS5003;55849;48.482;2.332;2024-01-30T05:14:50;5.25;4.00;3.25
68841;PMS5003;55849;48.482;2.332;2024-01-30T05:17:52;4.50;3.50;2.00
68841;PMS5003;55849;48.482;2.332;2024-01-30T05:20:54;5.50;5.50;4.00
68841;PMS5003;55849;48.482;2.332;2024-01-30T05:23:57;7.50;3.75;3.00
68841;PMS5003;55849;48.482;2.332;2024-01-30T05:26:58;3.75;3.75;3.50
68841;PMS5003;55849;48.482;2.332;2024-01-30T05:30:00;8.00;4.00;3.00
68841;PMS5003;55849;48.482;2.332;2024-01-30T05:33:01;3.75;3.75;3.25
68841;PMS5003;55849;48.482;2.332;2024-01-30T05:36:04;3.00;3.00;2.00
68841;PMS5003;55849;48.482;2.332;2024-01-30T05:39:07;4.00;2.50;1.00
68841;PMS5003;55849;48.482;2.332;2024-01-30T05:42:08;6.00;3.75;3.00
68841;PMS5003;55849;48.482;2.332;2024-01-30T05:45:11;4.00;4.00;3.00
68841;PMS5003;55849;48.482;2.332;2024-01-30T05:48:12;6.00;5.00;3.50
68841;PMS5003;55849;48.482;2.332;2024-01-30T05:51:14;11.00;7.50;3.50
68841;PMS5003;55849;48.482;2.332;2024-01-30T05:54:17;4.00;4.00;3.00
68841;PMS5003;55849;48.482;2.332;2024-01-30T05:57:18;4.50;4.50;3.75
68841;PMS5003;55849;48.482;2.332;2024-01-30T06:00:20;4.50;4.00;3.00
68841;PMS5003;55849;48.482;2.332;2024-01-30T06:03:22;10.00;6.00;3.00
68841;PMS5003;55849;48.482;2.332;2024-01-30T06:06:23;5.50;5.50;3.25
68841;PMS5003;55849;48.482;2.332;2024-01-30T06:09:26;4.00;4.00;3.00
68841;PMS5003;55849;48.482;2.332;2024-01-30T06:12:28;6.00;3.75;2.50
68841;PMS5003;55849;48.482;2.332;2024-01-30T06:15:30;3.00;1.50;1.00
68841;PMS5003;55849;48.482;2.332;2024-01-30T06:18:32;5.00;4.00;3.00
68841;PMS5003;55849;48.482;2.332;2024-01-30T06:21:34;8.50;3.25;3.00
68841;PMS5003;55849;48.482;2.332;2024-01-30T06:24:38;5.50;3.00;3.00
68841;PMS5003;55849;48.482;2.332;2024-01-30T06:27:39;4.00;2.50;1.00
68841;PMS5003;55849;48.482;2.332;2024-01-30T06:30:41;3.00;3.00;3.00
68841;PMS5003;55849;48.482;2.332;2024-01-30T06:33:43;3.25;3.25;2.00
68841;PMS5003;55849;48.482;2.332;2024-01-30T06:36:47;3.00;3.00;3.00
68841;PMS5003;55849;48.482;2.332;2024-01-30T06:39:50;2.50;2.50;0.50
68841;PMS5003;55849;48.482;2.332;2024-01-30T06:42:52;6.00;3.50;3.00
68841;PMS5003;55849;48.482;2.332;2024-01-30T06:45:54;6.75;3.75;3.00
68841;PMS5003;55849;48.482;2.332;2024-01-30T06:48:55;4.00;4.00;3.00
68841;PMS5003;55849;48.482;2.332;2024-01-30T06:51:57;5.50;3.25;1.50
68841;PMS5003;55849;48.482;2.332;2024-01-30T06:55:00;6.50;6.50;5.00
68841;PMS5003;55849;48.482;2.332;2024-01-30T06:58:02;4.50;4.50;3.75
68841;PMS5003;55849;48.482;2.332;2024-01-30T07:01:03;4.50;4.00;3.00
68841;PMS5003;55849;48.482;2.332;2024-01-30T07:04:05;6.00;3.50;3.00
68841;PMS5003;55849;48.482;2.332;2024-01-30T07:07:06;7.50;6.00;4.50
68841;PMS5003;55849;48.482;2.332;2024-01-30T07:10:14;6.75;4.50;3.25
68841;PMS5003;55849;48.482;2.332;2024-01-30T07:13:15;6.50;6.50;4.00
68841;PMS5003;55849;48.482;2.332;2024-01-30T07:16:17;4.00;4.00;3.00
68841;PMS5003;55849;48.482;2.332;2024-01-30T07:19:19;6.25;4.00;3.00
68841;PMS5003;55849;48.482;2.332;2024-01-30T07:22:20;3.00;3.00;1.00
68841;PMS5003;55849;48.482;2.332;2024-01-30T07:25:23;6.00;4.50;3.25
68841;PMS5003;55849;48.482;2.332;2024-01-30T07:28:26;3.00;3.00;2.50
68841;PMS5003;55849;48.482;2.332;2024-01-30T07:31:28;9.00;4.00;3.25
68841;PMS5003;55849;48.482;2.332;2024-01-30T07:34:29;8.00;6.50;4.00
68841;PMS5003;55849;48.482;2.332;2024-01-30T07:37:31;4.00;4.00;4.00
68841;PMS5003;55849;48.482;2.332;2024-01-30T07:40:34;5.00;3.00;3.00
68841;PMS5003;55849;48.482;2.332;2024-01-30T07:43:36;5.00;3.50;3.00
68841;PMS5003;55849;48.482;2.332;2024-01-30T07:46:39;3.75;3.75;3.00
68841;PMS5003;55849;48.482;2.332;2024-01-30T07:49:40;9.50;4.50;3.25
68841;PMS5003;55849;48.482;2.332;2024-01-30T07:52:42;7.00;5.25;3.50
68841;PMS5003;55849;48.482;2.332;2024-01-30T07:55:45;3.00;3.00;2.00
68841;PMS5003;55849;48.482;2.332;2024-01-30T07:58:47;8.50;6.25;3.00
68841;PMS5003;55849;48.482;2.332;2024-01-30T08:01:50;6.75;4.50;4.00
68841;PMS5003;55849;48.482;2.332;2024-01-30T08:04:51;5.50;5.50;3.00
68841;PMS5003;55849;48.482;2.332;2024-01-30T08:07:53;6.00;6.00;4.00
68841;PMS5003;55849;48.482;2.332;2024-01-30T08:10:56;4.50;4.50;3.00
68841;PMS5003;55849;48.482;2.332;2024-01-30T08:13:58;6.50;6.50;3.25
68841;PMS5003;55849;48.482;2.332;2024-01-30T08:16:59;3.75;3.75;3.00
68841;PMS5003;55849;48.482;2.332;2024-01-30T08:20:01;11.25;6.75;4.00
68841;PMS5003;55849;48.482;2.332;2024-01-30T08:23:04;6.25;4.00;3.00
68841;PMS5003;55849;48.482;2.332;2024-01-30T08:26:07;17.50;12.50;8.50
68841;PMS5003;55849;48.482;2.332;2024-01-30T08:29:09;5.75;5.75;3.50
68841;PMS5003;55849;48.482;2.332;2024-01-30T08:32:11;5.50;5.50;3.25
68841;PMS5003;55849;48.482;2.332;2024-01-30T08:35:12;9.25;7.00;6.00
68841;PMS5003;55849;48.482;2.332;2024-01-30T08:38:16;10.00;9.00;6.50
68841;PMS5003;55849;48.482;2.332;2024-01-30T08:41:18;8.50;8.50;4.00
68841;PMS5003;55849;48.482;2.332;2024-01-30T08:44:20;11.75;7.00;6.00
68841;PMS5003;55849;48.482;2.332;2024-01-30T08:47:22;8.00;5.50;5.50
68841;PMS5003;55849;48.482;2.332;2024-01-30T08:50:23;8.00;5.00;4.00
68841;PMS5003;55849;48.482;2.332;2024-01-30T08:53:25;8.50;8.50;4.00
68841;PMS5003;55849;48.482;2.332;2024-01-30T08:56:28;6.50;6.50;5.00
68841;PMS5003;55849;48.482;2.332;2024-01-30T08:59:29;11.50;7.00;4.50
68841;PMS5003;55849;48.482;2.332;2024-01-30T09:02:31;8.00;6.75;4.00
68841;PMS5003;55849;48.482;2.332;2024-01-30T09:05:32;9.00;7.00;5.00
68841;PMS5003;55849;48.482;2.332;2024-01-30T09:08:34;19.75;16.25;13.50
68841;PMS5003;55849;48.482;2.332;2024-01-30T09:11:37;7.00;4.00;3.25
68841;PMS5003;55849;48.482;2.332;2024-01-30T09:14:39;9.00;6.50;5.00
68841;PMS5003;55849;48.482;2.332;2024-01-30T09:17:41;15.50;12.75;8.00
68841;PMS5003;55849;48.482;2.332;2024-01-30T09:20:42;5.75;3.75;3.00
68841;PMS5003;55849;48.482;2.332;2024-01-30T09:23:45;4.50;4.00;3.75
68841;PMS5003;55849;48.482;2.332;2024-01-30T09:26:48;9.00;9.00;4.50
68841;PMS5003;55849;48.482;2.332;2024-01-30T09:29:50;9.50;8.00;6.50
68841;PMS5003;55849;48.482;2.332;2024-01-30T09:32:51;8.00;6.75;4.00
68841;PMS5003;55849;48.482;2.332;2024-01-30T09:35:53;10.25;9.25;6.00
68841;PMS5003;55849;48.482;2.332;2024-01-30T09:38:54;9.00;6.50;4.00
68841;PMS5003;55849;48.482;2.332;2024-01-30T09:42:00;8.50;8.50;4.50
68841;PMS5003;55849;48.482;2.332;2024-01-30T09:45:06;13.00;13.00;7.50
68841;PMS5003;55849;48.482;2.332;2024-01-30T09:48:07;8.50;8.25;6.00
68841;PMS5003;55849;48.482;2.332;2024-01-30T09:51:10;9.00;6.00;4.00
68841;PMS5003;55849;48.482;2.332;2024-01-30T09:54:13;12.00;5.75;4.00
68841;PMS5003;55849;48.482;2.332;2024-01-30T09:57:17;8.50;6.00;4.00
68841;PMS5003;55849;48.482;2.332;2024-01-30T10:00:19;4.00;4.00;3.50
68841;PMS5003;55849;48.482;2.332;2024-01-30T10:03:22;8.50;5.50;3.00
68841;PMS5003;55849;48.482;2.332;2024-01-30T10:06:25;2.50;2.50;2.50
68841;PMS5003;55849;48.482;2.332;2024-01-30T10:09:31;11.25;9.75;4.00
68841;PMS5003;55849;48.482;2.332;2024-01-30T10:12:35;4.25;3.75;3.00
68841;PMS5003;55849;48.482;2.332;2024-01-30T10:15:37;7.00;7.00;6.00
68841;PMS5003;55849;48.482;2.332;2024-01-30T10:18:39;9.00;9.00;4.50
68841;PMS5003;55849;48.482;2.332;2024-01-30T10:21:42;4.00;4.00;3.50
68841;PMS5003;55849;48.482;2.332;2024-01-30T10:24:44;12.00;12.00;7.00
68841;PMS5003;55849;48.482;2.332;2024-01-30T10:27:47;7.25;6.50;5.50
68841;PMS5003;55849;48.482;2.332;2024-01-30T10:30:57;7.25;7.00;5.00
68841;PMS5003;55849;48.482;2.332;2024-01-30T10:33:59;10.25;7.50;5.00
68841;PMS5003;55849;48.482;2.332;2024-01-30T10:37:06;7.00;4.25;3.00
68841;PMS5003;55849;48.482;2.332;2024-01-30T10:40:12;9.75;6.50;4.00
68841;PMS5003;55849;48.482;2.332;2024-01-30T10:43:17;9.00;7.75;5.75
68841;PMS5003;55849;48.482;2.332;2024-01-30T10:46:23;8.50;8.50;4.50
68841;PMS5003;55849;48.482;2.332;2024-01-30T10:49:32;8.00;4.50;3.25
68841;PMS5003;55849;48.482;2.332;2024-01-30T10:52:35;7.75;7.75;6.75
68841;PMS5003;55849;48.482;2.332;2024-01-30T10:55:37;11.00;10.00;6.75
68841;PMS5003;55849;48.482;2.332;2024-01-30T10:58:42;8.25;7.75;5.50
68841;PMS5003;55849;48.482;2.332;2024-01-30T11:01:43;9.75;9.25;4.75
68841;PMS5003;55849;48.482;2.332;2024-01-30T11:04:45;17.00;15.75;9.75
68841;PMS5003;55849;48.482;2.332;2024-01-30T11:07:48;8.00;7.00;4.25
68841;PMS5003;55849;48.482;2.332;2024-01-30T11:10:49;10.25;6.25;5.00
68841;PMS5003;55849;48.482;2.332;2024-01-30T11:13:52;15.00;11.25;7.00
68841;PMS5003;55849;48.482;2.332;2024-01-30T11:16:56;7.25;7.25;4.75
68841;PMS5003;55849;48.482;2.332;2024-01-30T11:19:58;7.00;7.00;5.50
68841;PMS5003;55849;48.482;2.332;2024-01-30T11:23:00;12.50;10.75;7.00
68841;PMS5003;55849;48.482;2.332;2024-01-30T11:26:06;6.75;6.75;5.00
68841;PMS5003;55849;48.482;2.332;2024-01-30T11:29:09;17.00;13.25;9.25
68841;PMS5003;55849;48.482;2.332;2024-01-30T11:32:11;14.50;11.25;6.25
68841;PMS5003;55849;48.482;2.332;2024-01-30T11:35:13;13.25;12.50;7.50
68841;PMS5003;55849;48.482;2.332;2024-01-30T11:38:15;34.75;27.25;16.00
68841;PMS5003;55849;48.482;2.332;2024-01-30T11:41:16;20.75;17.00;12.75
68841;PMS5003;55849;48.482;2.332;2024-01-30T11:44:20;13.00;13.00;10.00
68841;PMS5003;55849;48.482;2.332;2024-01-30T11:47:22;21.25;21.25;15.50
68841;PMS5003;55849;48.482;2.332;2024-01-30T11:50:24;18.00;16.50;12.00
68841;PMS5003;55849;48.482;2.332;2024-01-30T11:53:26;26.50;22.75;15.00
68841;PMS5003;55849;48.482;2.332;2024-01-30T11:56:28;22.50;18.75;12.25
68841;PMS5003;55849;48.482;2.332;2024-01-30T11:59:31;32.50;30.50;20.25
68841;PMS5003;55849;48.482;2.332;2024-01-30T12:02:32;25.25;21.25;13.75
68841;PMS5003;55849;48.482;2.332;2024-01-30T12:05:34;24.00;19.25;12.25
68841;PMS5003;55849;48.482;2.332;2024-01-30T12:08:36;14.00;12.50;8.75
68841;PMS5003;55849;48.482;2.332;2024-01-30T12:11:43;14.75;14.00;10.75
68841;PMS5003;55849;48.482;2.332;2024-01-30T12:14:47;17.50;17.00;13.00
68841;PMS5003;55849;48.482;2.332;2024-01-30T12:17:48;16.50;12.75;8.00
68841;PMS5003;55849;48.482;2.332;2024-01-30T12:20:56;12.25;12.25;7.75
68841;PMS5003;55849;48.482;2.332;2024-01-30T12:23:59;8.25;8.25;7.00
68841;PMS5003;55849;48.482;2.332;2024-01-30T12:27:01;15.25;14.75;11.25
68841;PMS5003;55849;48.482;2.332;2024-01-30T12:30:06;13.25;13.25;8.75
68841;PMS5003;55849;48.482;2.332;2024-01-30T12:33:09;10.00;9.00;7.50
68841;PMS5003;55849;48.482;2.332;2024-01-30T12:36:11;16.75;12.00;8.00
68841;PMS5003;55849;48.482;2.332;2024-01-30T12:39:12;12.00;11.00;7.25
68841;PMS5003;55849;48.482;2.332;2024-01-30T12:42:15;15.75;15.00;10.50
68841;PMS5003;55849;48.482;2.332;2024-01-30T12:45:18;13.50;13.50;8.25
68841;PMS5003;55849;48.482;2.332;2024-01-30T12:48:21;19.75;17.00;11.75
68841;PMS5003;55849;48.482;2.332;2024-01-30T12:51:23;15.50;13.75;10.50
68841;PMS5003;55849;48.482;2.332;2024-01-30T12:54:24;28.00;24.75;14.50
68841;PMS5003;55849;48.482;2.332;2024-01-30T12:57:26;26.75;22.00;16.25
68841;PMS5003;55849;48.482;2.332;2024-01-30T13:00:29;25.25;18.00;11.75
68841;PMS5003;55849;48.482;2.332;2024-01-30T13:03:31;20.25;19.50;13.25
68841;PMS5003;55849;48.482;2.332;2024-01-30T13:06:32;24.25;21.00;12.25
68841;PMS5003;55849;48.482;2.332;2024-01-30T13:09:34;15.50;13.75;10.00
68841;PMS5003;55849;48.482;2.332;2024-01-30T13:12:36;15.75;14.75;11.25
68841;PMS5003;55849;48.482;2.332;2024-01-30T13:15:39;14.50;14.50;11.50
68841;PMS5003;55849;48.482;2.332;2024-01-30T13:18:41;18.50;17.50;11.00
68841;PMS5003;55849;48.482;2.332;2024-01-30T13:21:43;12.00;12.00;8.00
68841;PMS5003;55849;48.482;2.332;2024-01-30T13:24:47;14.75;13.25;10.25
68841;PMS5003;55849;48.482;2.332;2024-01-30T13:27:49;14.00;11.75;9.00
68841;PMS5003;55849;48.482;2.332;2024-01-30T13:30:51;20.25;17.50;12.50
68841;PMS5003;55849;48.482;2.332;2024-01-30T13:33:53;15.00;15.00;10.00
68841;PMS5003;55849;48.482;2.332;2024-01-30T13:36:55;22.50;19.00;12.25
68841;PMS5003;55849;48.482;2.332;2024-01-30T13:39:56;22.75;16.00;10.75
68841;PMS5003;55849;48.482;2.332;2024-01-30T13:42:58;20.75;17.75;11.75
68841;PMS5003;55849;48.482;2.332;2024-01-30T13:46:01;11.75;10.00;9.00
68841;PMS5003;55849;48.482;2.332;2024-01-30T13:49:03;13.50;12.75;8.00
68841;PMS5003;55849;48.482;2.332;2024-01-30T13:52:05;14.50;14.00;10.00
68841;PMS5003;55849;48.482;2.332;2024-01-30T13:55:07;13.50;9.25;7.75
68841;PMS5003;55849;48.482;2.332;2024-01-30T13:58:08;11.50;11.25;8.50
68841;PMS5003;55849;48.482;2.332;2024-01-30T14:01:11;13.25;10.50;8.00
68841;PMS5003;55849;48.482;2.332;2024-01-30T14:04:13;17.00;13.75;8.00
68841;PMS5003;55849;48.482;2.332;2024-01-30T14:07:15;15.50;15.25;11.75
68841;PMS5003;55849;48.482;2.332;2024-01-30T14:10:18;18.25;14.25;11.00
68841;PMS5003;55849;48.482;2.332;2024-01-30T14:13:20;19.00;18.00;12.00
68841;PMS5003;55849;48.482;2.332;2024-01-30T14:16:24;18.50;17.25;11.00
68841;PMS5003;55849;48.482;2.332;2024-01-30T14:19:25;16.75;16.00;12.50
68841;PMS5003;55849;48.482;2.332;2024-01-30T14:22:27;17.00;15.25;11.00
68841;PMS5003;55849;48.482;2.332;2024-01-30T14:25:28;10.25;10.00;7.00
68841;PMS5003;55849;48.482;2.332;2024-01-30T14:28:30;21.25;17.75;13.00
68841;PMS5003;55849;48.482;2.332;2024-01-30T14:31:33;14.75;13.50;10.25
68841;PMS5003;55849;48.482;2.332;2024-01-30T14:34:34;31.25;26.75;17.25
68841;PMS5003;55849;48.482;2.332;2024-01-30T14:37:37;24.00;19.50;15.00
68841;PMS5003;55849;48.482;2.332;2024-01-30T14:40:39;13.25;12.00;8.75
68841;PMS5003;55849;48.482;2.332;2024-01-30T14:43:40;18.25;17.25;12.50
68841;PMS5003;55849;48.482;2.332;2024-01-30T14:46:44;12.75;12.75;9.75
68841;PMS5003;55849;48.482;2.332;2024-01-30T14:49:46;17.00;13.75;10.25
68841;PMS5003;55849;48.482;2.332;2024-01-30T14:52:47;14.00;12.50;10.00
68841;PMS5003;55849;48.482;2.332;2024-01-30T14:55:49;11.25;10.00;8.00
68841;PMS5003;55849;48.482;2.332;2024-01-30T14:58:51;15.75;14.00;10.50
68841;PMS5003;55849;48.482;2.332;2024-01-30T15:01:54;15.00;13.50;8.00
68841;PMS5003;55849;48.482;2.332;2024-01-30T15:04:55;13.50;12.75;8.75
68841;PMS5003;55849;48.482;2.332;2024-01-30T15:07:57;13.00;11.50;8.00
68841;PMS5003;55849;48.482;2.332;2024-01-30T15:10:58;8.25;7.00;5.50
68841;PMS5003;55849;48.482;2.332;2024-01-30T15:14:00;8.50;7.75;5.00
68841;PMS5003;55849;48.482;2.332;2024-01-30T15:17:03;11.00;8.00;5.25
68841;PMS5003;55849;48.482;2.332;2024-01-30T15:20:05;10.50;8.50;5.75
68841;PMS5003;55849;48.482;2.332;2024-01-30T15:23:08;7.25;6.00;5.25
68841;PMS5003;55849;48.482;2.332;2024-01-30T15:26:09;10.00;9.25;5.25
68841;PMS5003;55849;48.482;2.332;2024-01-30T15:29:11;10.50;8.00;6.25
68841;PMS5003;55849;48.482;2.332;2024-01-30T15:32:14;10.50;10.50;7.75
68841;PMS5003;55849;48.482;2.332;2024-01-30T15:35:15;13.25;11.00;9.00
68841;PMS5003;55849;48.482;2.332;2024-01-30T15:38:17;15.00;12.75;11.00
68841;PMS5003;55849;48.482;2.332;2024-01-30T15:41:21;8.00;6.25;6.00
68841;PMS5003;55849;48.482;2.332;2024-01-30T15:44:22;9.25;8.00;4.75
68841;PMS5003;55849;48.482;2.332;2024-01-30T15:47:25;12.25;9.75;8.00
68841;PMS5003;55849;48.482;2.332;2024-01-30T15:50:27;6.25;6.25;5.00
68841;PMS5003;55849;48.482;2.332;2024-01-30T15:53:29;9.75;8.25;6.50
68841;PMS5003;55849;48.482;2.332;2024-01-30T15:56:30;7.50;7.50;4.25
68841;PMS5003;55849;48.482;2.332;2024-01-30T15:59:32;4.75;4.75;4.75
68841;PMS5003;55849;48.482;2.332;2024-01-30T16:02:35;10.75;10.75;7.00
68841;PMS5003;55849;48.482;2.332;2024-01-30T16:05:36;8.00;8.00;6.00
68841;PMS5003;55849;48.482;2.332;2024-01-30T16:08:39;8.00;8.00;5.25
68841;PMS5003;55849;48.482;2.332;2024-01-30T16:11:42;9.00;8.00;6.00
68841;PMS5003;55849;48.482;2.332;2024-01-30T16:14:43;12.00;6.75;5.00
68841;PMS5003;55849;48.482;2.332;2024-01-30T16:17:46;7.75;5.25;4.00
68841;PMS5003;55849;48.482;2.332;2024-01-30T16:20:48;10.75;8.00;6.00
68841;PMS5003;55849;48.482;2.332;2024-01-30T16:23:50;8.00;8.00;5.00
68841;PMS5003;55849;48.482;2.332;2024-01-30T16:26:53;9.00;7.25;6.00
68841;PMS5003;55849;48.482;2.332;2024-01-30T16:29:57;9.75;8.00;7.00
68841;PMS5003;55849;48.482;2.332;2024-01-30T16:32:59;8.00;8.00;6.00
68841;PMS5003;55849;48.482;2.332;2024-01-30T16:36:02;10.25;9.25;7.00
68841;PMS5003;55849;48.482;2.332;2024-01-30T16:39:04;12.25;9.75;8.00
68841;PMS5003;55849;48.482;2.332;2024-01-30T16:42:05;12.25;10.00;8.00
68841;PMS5003;55849;48.482;2.332;2024-01-30T16:45:08;9.75;8.75;6.75
68841;PMS5003;55849;48.482;2.332;2024-01-30T16:48:11;7.00;6.00;5.00
68841;PMS5003;55849;48.482;2.332;2024-01-30T16:51:16;12.00;9.25;8.50
68841;PMS5003;55849;48.482;2.332;2024-01-30T16:54:18;14.00;11.25;8.25
68841;PMS5003;55849;48.482;2.332;2024-01-30T16:57:20;12.75;12.00;10.25
68841;PMS5003;55849;48.482;2.332;2024-01-30T17:00:22;13.75;12.50;9.00
68841;PMS5003;55849;48.482;2.332;2024-01-30T17:03:25;14.50;13.00;10.00
68841;PMS5003;55849;48.482;2.332;2024-01-30T17:06:27;14.00;13.25;9.50
68841;PMS5003;55849;48.482;2.332;2024-01-30T17:09:28;14.75;14.00;10.50
68841;PMS5003;55849;48.482;2.332;2024-01-30T17:12:30;14.00;13.00;10.25
68841;PMS5003;55849;48.482;2.332;2024-01-30T17:15:32;21.50;21.50;13.25
68841;PMS5003;55849;48.482;2.332;2024-01-30T17:18:35;13.00;8.75;6.25
68841;PMS5003;55849;48.482;2.332;2024-01-30T17:21:37;9.25;9.25;7.75
68841;PMS5003;55849;48.482;2.332;2024-01-30T17:24:39;12.00;9.00;7.75
68841;PMS5003;55849;48.482;2.332;2024-01-30T17:27:40;14.75;9.50;6.00
68841;PMS5003;55849;48.482;2.332;2024-01-30T17:30:42;10.25;9.25;6.25